SKVV

La Vanguardia Airport

Airport
ICAO code
SKVV
IATA Code
VVC
Summary
ICAO Region
CARSAM
ICAO Territory
Location

Villavicencio, Meta department

Serving
Villavicencio
Elevation
1394 ft
Coordinates
4° 10' 8" N , 73° 36' 44" W
KCC
Metar
SKVV 201500Z 11005KT 9999 FEW023 BKN090 28/22 Q1019

La Vanguardia Airport is an airport serving the city of Villavicencio in the Meta Department of Colombia. It serves regular passenger, charter and cargo airlines as well as private sectors. The airport is just north of the city.

Climatology

Tropical monsoon climate (Köppen climate classification Am)

Runways

Designator Length Width Surface Rops
5/23 1712 30 ASP No/No

Airport map

Aerial View

SKYbrary Partners:

Safety knowledge contributed by: